Keesler Air Force Base
KBIX : now visible

Airfield :











YOU CAN JOIN US ON...

 
LOGIN :

Register | Disclaimer

   EN    FR    IT 

 









Legend :    VFR   Marginal VFR   IFR   Intensive IFR   Very Intensive IFR
Visi :
Ceiling :
>= 8 km
>= 3000ft
5 to 8 km
1000 to 3000 ft
1500m to 5 km
500 to 1000 ft
800 to 1500m
200 to 500 ft
< 800m
< 200 ft
Symbols :   Thunderstorms  Fog  Heavy snow  Heavy precipitations  Wind > 20 kt






- Airport Elevation : 33 ft


KBIX - Keesler Air Force Base

CURRENT METAR :
  • 050056Z AUTO 34003KT 10SM CLR 28/20 A2995 RMK AO2 SLPNO T02830195

EXPIRED METARs :
  • 042356Z AUTO 02003KT 10SM CLR 30/20 A2994 RMK AO2 SLP141 T02970199 10319 20297 52010
  • 042256Z AUTO 03004KT 10SM FEW050 SCT090 31/20 A2994 RMK AO2 SLP141 T03060202

TAF TAF KBIX
Valid from the 04 at 18:00 until the 06 at 00:00 UTC


041800Z 0418/0524 VRB06KT 9999 SCT025 BKN040 QNH2990INS
BECMG 0419/0420 05009KT 9999 VCTS SCT025CB BKN040 OVC100 QNH2988INS
BECMG 0500/0501 05006KT 9999 NSW SCT030 BKN100 QNH2990INS
BECMG 0518/0519 14009KT 9999 VCTS SCT030CB BKN100 OVC250 QNH2986INS TX32/0518Z TN25/0511Z
KZHU FIR / North America



MET'MAP, your aeronautical weather chart ! - Copyright ORBIFLY December 2007 - Disclaimer

ORBIFLY MET'MAP TEAM :

Programming & Development : Alexandra Zaïnal
Concept & original design : Baudouin d'Aumeries
Assistance for programming : Marc-Olivier Méhu
Technical & hardware support : Manuel Goepfert

Contact : metmap@orbifly.com




SOURCES & CREDITS :

   NOAA       Earth
Advisory